Time;durP1;ratioP1;P1;durP2;ratioP2;P2;SDS_P1;SDS_P2;PMS_P1;PMS_P2;Temp;Humidity;BMP_temperature;BMP_pressure;BME280_temperature;BME280_humidity;BME280_pressure;Samples;Min_cycle;Max_cycle;Signal;HPM_P1;HPM_P2
2023/02/27 00:00:51;;;;;;;27.77;14.13;;;;;;;13.06;65.20;93960.56;5053566;28;20949;-74
2023/02/27 00:03:18;;;;;;;30.80;12.60;;;;;;;13.10;65.43;93961.88;5053822;28;20517;-74
2023/02/27 00:05:44;;;;;;;25.50;10.87;;;;;;;13.04;65.24;93955.47;5053600;28;21032;-74
2023/02/27 00:08:11;;;;;;;39.20;13.83;;;;;;;13.05;65.81;93961.53;5053349;28;20454;-74
2023/02/27 00:10:38;;;;;;;24.63;12.13;;;;;;;13.05;65.83;93958.91;5053452;28;20505;-73
2023/02/27 00:13:05;;;;;;;25.00;11.60;;;;;;;13.01;65.55;93953.16;5053064;28;20870;-72
2023/02/27 00:15:32;;;;;;;32.77;13.03;;;;;;;12.96;65.45;93969.44;5053121;28;20456;-74
2023/02/27 00:18:00;;;;;;;22.13;12.27;;;;;;;12.96;65.28;93971.25;5053453;28;20447;-73
2023/02/27 00:20:27;;;;;;;27.27;11.80;;;;;;;12.95;64.42;93956.44;5053388;28;20999;-73
2023/02/27 00:22:54;;;;;;;23.03;11.90;;;;;;;13.00;64.51;93947.03;5053326;28;20443;-73
2023/02/27 00:25:21;;;;;;;29.07;12.00;;;;;;;12.95;64.12;93936.19;5053212;28;20470;-74
2023/02/27 00:27:48;;;;;;;31.80;12.90;;;;;;;12.90;64.14;93956.13;5018347;28;20473;-74
2023/02/27 00:30:15;;;;;;;36.30;12.30;;;;;;;12.95;63.65;93949.38;5053122;28;20446;-74
2023/02/27 00:32:42;;;;;;;27.53;14.20;;;;;;;13.00;64.30;93954.94;5053169;28;20560;-74
2023/02/27 00:35:12;;;;;;;29.80;12.10;;;;;;;13.02;63.39;93945.09;5053024;28;20527;-73
2023/02/27 00:37:39;;;;;;;22.67;10.30;;;;;;;13.07;63.40;93957.75;5033992;28;20934;-74
2023/02/27 00:40:08;;;;;;;26.17;11.40;;;;;;;13.09;63.26;93952.31;5052863;28;20531;-74
2023/02/27 00:42:35;;;;;;;24.60;10.77;;;;;;;12.96;63.59;93956.28;5053147;28;20493;-73
2023/02/27 00:45:02;;;;;;;36.13;13.33;;;;;;;12.98;64.08;93942.94;5053246;28;20484;-73
2023/02/27 00:47:29;;;;;;;31.43;12.60;;;;;;;12.98;64.30;93954.28;5052813;28;20461;-74
2023/02/27 00:49:56;;;;;;;32.87;11.90;;;;;;;12.91;64.20;93952.50;5052761;28;20455;-74
2023/02/27 00:52:24;;;;;;;29.83;12.70;;;;;;;12.85;64.32;93943.47;5053107;28;21011;-73
2023/02/27 00:54:51;;;;;;;33.80;14.30;;;;;;;12.73;64.55;93957.97;5052381;28;20596;-73
2023/02/27 00:57:18;;;;;;;34.30;13.50;;;;;;;12.70;65.00;93966.19;5052918;28;20519;-73
2023/02/27 00:59:45;;;;;;;32.90;14.30;;;;;;;12.60;65.19;93966.34;5051904;28;20473;-73
2023/02/27 01:02:12;;;;;;;34.17;16.10;;;;;;;12.47;65.53;93960.78;5052522;28;20458;-73
2023/02/27 01:04:39;;;;;;;44.13;16.10;;;;;;;12.43;66.36;93967.31;5052518;28;20446;-72
2023/02/27 01:07:06;;;;;;;44.70;15.47;;;;;;;12.40;65.85;93968.47;5052270;28;20505;-74
2023/02/27 01:09:34;;;;;;;39.10;15.37;;;;;;;12.38;65.96;93967.00;5052740;28;20507;-73
2023/02/27 01:12:00;;;;;;;39.40;13.13;;;;;;;12.34;66.36;93966.50;5052709;28;20884;-71
2023/02/27 01:14:27;;;;;;;34.17;14.33;;;;;;;12.36;66.83;93969.78;5052336;28;20453;-73
2023/02/27 01:16:54;;;;;;;30.10;12.97;;;;;;;12.47;67.11;93978.38;5052672;28;20448;-74
2023/02/27 01:19:21;;;;;;;34.40;14.40;;;;;;;12.48;66.78;93961.59;5052392;28;20450;-73
2023/02/27 01:21:48;;;;;;;32.37;13.97;;;;;;;12.41;66.81;93964.03;5017448;28;20448;-72
2023/02/27 01:24:14;;;;;;;25.63;11.73;;;;;;;12.48;66.36;93951.06;5052029;28;20507;-72
2023/02/27 01:26:43;;;;;;;26.27;11.83;;;;;;;12.56;66.19;93964.22;5052428;28;20449;-74
2023/02/27 01:29:10;;;;;;;24.33;13.10;;;;;;;12.64;66.21;93953.69;5052544;28;20481;-74
2023/02/27 01:31:37;;;;;;;46.77;13.83;;;;;;;12.68;65.81;93962.88;5052394;28;20496;-73
2023/02/27 01:34:03;;;;;;;42.13;14.00;;;;;;;12.69;65.36;93968.00;5052325;28;20470;-73
2023/02/27 01:36:30;;;;;;;31.07;13.83;;;;;;;12.73;65.01;93965.88;5052104;28;20453;-74
2023/02/27 01:38:57;;;;;;;34.60;13.80;;;;;;;12.71;65.47;93970.44;5052237;28;20499;-74
2023/02/27 01:41:24;;;;;;;29.10;12.47;;;;;;;12.71;65.04;93978.34;5052462;28;20492;-73
2023/02/27 01:43:57;;;;;;;31.37;12.40;;;;;;;12.73;65.32;93981.66;5051903;28;20480;-74
2023/02/27 01:46:25;;;;;;;31.87;13.90;;;;;;;12.76;65.42;94002.41;5051916;28;20451;-74
2023/02/27 01:48:58;;;;;;;36.63;14.27;;;;;;;12.72;65.12;93998.41;5052005;28;20528;-73
2023/02/27 01:51:28;;;;;;;36.90;16.60;;;;;;;12.67;65.54;94009.44;5052298;28;20495;-72
2023/02/27 01:53:56;;;;;;;45.67;21.73;;;;;;;12.63;65.50;93999.41;5051901;28;20996;-75
2023/02/27 01:56:25;;;;;;;57.13;22.30;;;;;;;12.51;66.23;94003.38;5052021;28;20485;-73
2023/02/27 01:58:56;;;;;;;37.13;16.60;;;;;;;12.53;65.82;94015.38;5052020;28;20440;-73
2023/02/27 02:01:24;;;;;;;30.40;13.80;;;;;;;12.48;66.34;94001.06;5051739;28;20536;-74
2023/02/27 02:03:55;;;;;;;33.67;14.70;;;;;;;12.49;66.46;94014.06;5051757;28;20474;-74
2023/02/27 02:06:22;;;;;;;37.40;15.67;;;;;;;12.56;66.39;94022.13;5052141;28;20441;-73
2023/02/27 02:08:52;;;;;;;38.27;16.50;;;;;;;12.63;66.72;94031.00;5051686;28;20495;-74
2023/02/27 02:11:20;;;;;;;31.10;15.27;;;;;;;12.61;66.67;94036.44;5016821;28;20954;-73
2023/02/27 02:13:51;;;;;;;31.27;15.10;;;;;;;12.55;66.82;94041.53;5054912;28;20481;-73
2023/02/27 02:16:48;;;;;;;49.53;19.90;;;;;;;12.51;66.72;94046.28;5055695;28;20446;-73
2023/02/27 02:19:43;;;;;;;42.60;19.70;;;;;;;12.46;67.86;94039.88;4993832;28;20452;-74
2023/02/27 02:22:45;;;;;;;35.70;15.77;;;;;;;12.45;70.10;94098.75;4936051;29;20526;-74
2023/02/27 02:25:52;;;;;;;34.00;14.40;;;;;;;12.39;74.20;94194.91;4936206;29;20755;-74
2023/02/27 02:28:49;;;;;;;9.80;2.50;;;;;;;12.02;80.34;94205.75;4860639;29;20453;-72
2023/02/27 02:31:44;;;;;;;4.10;1.40;;;;;;;11.85;83.62;94222.38;4860681;29;20990;-74
2023/02/27 02:34:47;;;;;;;4.27;1.87;;;;;;;11.78;86.56;94223.00;4860436;29;21085;-73
2023/02/27 02:37:39;;;;;;;3.57;1.70;;;;;;;11.78;87.48;94230.06;4860644;29;20461;-73
2023/02/27 02:40:27;;;;;;;5.90;1.63;;;;;;;11.83;87.60;94232.22;4860583;29;20450;-74
2023/02/27 02:42:59;;;;;;;4.70;1.53;;;;;;;11.76;87.48;94253.03;4860456;29;20462;-73
2023/02/27 02:45:33;;;;;;;2.77;1.50;;;;;;;11.64;88.21;94246.38;4860279;29;20454;-75
2023/02/27 02:48:09;;;;;;;8.10;1.60;;;;;;;11.65;88.62;94240.97;4860289;29;20458;-73
2023/02/27 02:50:41;;;;;;;2.00;1.70;;;;;;;11.53;91.31;94244.78;4860374;29;20445;-74
2023/02/27 02:53:15;;;;;;;2.80;1.20;;;;;;;11.29;90.13;94261.19;4860322;29;20494;-74
2023/02/27 02:55:48;;;;;;;5.63;1.30;;;;;;;11.12;90.68;94254.94;4865452;29;21038;-74
2023/02/27 02:58:25;;;;;;;2.33;1.07;;;;;;;11.18;90.09;94264.84;4900538;29;20452;-73
2023/02/27 03:01:00;;;;;;;2.27;1.20;;;;;;;11.18;90.19;94261.38;4935400;29;20502;-73
2023/02/27 03:03:31;;;;;;;2.23;1.10;;;;;;;10.99;90.99;94256.28;4935431;29;20842;-73
2023/02/27 03:06:01;;;;;;;6.30;1.27;;;;;;;10.98;93.14;94257.22;4998354;28;21197;-73
2023/02/27 03:08:33;;;;;;;2.33;1.50;;;;;;;10.98;92.89;94249.34;5031770;28;20441;-73
2023/02/27 03:11:03;;;;;;;2.20;1.40;;;;;;;10.90;91.80;94246.66;5019774;28;20449;-74
2023/02/27 03:13:36;;;;;;;1.30;1.20;;;;;;;10.74;92.04;94231.56;5054224;28;20934;-73
2023/02/27 03:16:09;;;;;;;1.20;1.10;;;;;;;10.81;91.72;94237.88;5054272;28;20460;-71
2023/02/27 03:18:40;;;;;;;4.00;1.10;;;;;;;10.79;91.64;94232.75;5054627;28;20978;-73
2023/02/27 03:21:13;;;;;;;1.73;1.10;;;;;;;10.88;92.17;94254.66;5054475;28;20457;-73
2023/02/27 03:23:43;;;;;;;2.93;1.73;;;;;;;10.90;91.79;94273.72;5053970;28;20451;-72
2023/02/27 03:26:16;;;;;;;3.00;1.50;;;;;;;11.00;92.56;94269.25;5054178;28;20797;-74
2023/02/27 03:28:55;;;;;;;2.43;1.50;;;;;;;11.03;91.52;94276.00;5054261;28;20456;-73
2023/02/27 03:31:31;;;;;;;1.37;1.27;;;;;;;11.09;90.60;94284.13;5054180;28;20499;-73
2023/02/27 03:34:07;;;;;;;2.40;1.47;;;;;;;11.14;90.05;94321.25;5054595;28;20508;-74
2023/02/27 03:36:43;;;;;;;3.27;2.13;;;;;;;11.12;90.39;94359.13;5054023;28;20445;-73
2023/02/27 03:39:23;;;;;;;7.80;3.30;;;;;;;11.00;88.46;94376.91;5053932;28;20527;-73
2023/02/27 03:41:54;;;;;;;5.93;3.67;;;;;;;10.93;88.25;94375.78;5054358;28;20452;-72
2023/02/27 03:44:28;;;;;;;3.90;3.50;;;;;;;10.96;89.91;94351.88;5053960;28;20441;-73
2023/02/27 03:46:55;;;;;;;6.03;4.40;;;;;;;10.80;86.84;94360.38;5053965;28;20517;-73
2023/02/27 03:49:22;;;;;;;4.80;4.03;;;;;;;10.69;86.11;94368.41;5053751;28;20499;-73
2023/02/27 03:51:49;;;;;;;7.03;3.80;;;;;;;10.34;86.58;94355.97;5053844;28;20460;-74
2023/02/27 03:54:20;;;;;;;5.50;3.97;;;;;;;10.21;87.84;94365.94;5054255;28;20891;-73
2023/02/27 03:56:55;;;;;;;7.40;5.13;;;;;;;10.12;89.05;94356.25;5053809;28;20454;-73
2023/02/27 03:59:24;;;;;;;7.03;3.80;;;;;;;9.88;88.70;94370.66;5053621;28;21015;-74
2023/02/27 04:01:52;;;;;;;7.27;4.90;;;;;;;9.98;88.90;94396.84;5053692;28;20630;-73
2023/02/27 04:04:19;;;;;;;5.77;4.43;;;;;;;10.02;88.89;94403.44;5053453;28;20522;-74
2023/02/27 04:09:48;;;;;;;5.77;5.17;;;;;;;10.22;88.01;94401.69;5053537;28;20436;-73
2023/02/27 04:12:34;;;;;;;11.53;6.40;;;;;;;10.35;88.56;94420.56;5053365;28;20460;-74
2023/02/27 04:15:13;;;;;;;11.40;6.40;;;;;;;10.45;87.74;94426.63;5053341;28;20458;-73
2023/02/27 04:17:50;;;;;;;8.93;6.33;;;;;;;10.52;87.02;94432.97;5053408;28;20498;-74
2023/02/27 04:20:27;;;;;;;6.60;4.70;;;;;;;10.57;86.96;94419.44;5034658;28;20437;-73
2023/02/27 04:22:57;;;;;;;5.23;4.73;;;;;;;10.63;86.43;94418.84;5053225;28;20997;-74
2023/02/27 04:25:39;;;;;;;12.97;5.47;;;;;;;10.64;86.47;94424.94;5053446;28;20499;-74
2023/02/27 04:28:16;;;;;;;11.63;6.93;;;;;;;10.72;85.57;94430.31;5053247;28;20446;-74
2023/02/27 04:30:52;;;;;;;16.80;8.10;;;;;;;10.59;84.80;94427.16;5052924;28;20494;-74
2023/02/27 04:33:28;;;;;;;17.67;8.90;;;;;;;10.61;85.39;94438.34;5053225;28;20877;-73
2023/02/27 04:35:59;;;;;;;18.73;9.87;;;;;;;10.65;85.63;94458.06;5052090;28;20962;-74
2023/02/27 04:38:31;;;;;;;28.33;9.60;;;;;;;10.54;84.80;94462.50;5053333;28;20473;-74
2023/02/27 04:41:03;;;;;;;12.80;5.90;;;;;;;10.33;84.62;94458.38;5053080;28;20445;-74
2023/02/27 04:43:35;;;;;;;9.27;4.40;;;;;;;10.17;84.47;94482.53;5052642;28;20456;-75
2023/02/27 04:46:06;;;;;;;7.20;4.60;;;;;;;10.12;85.54;94508.31;5034201;28;20980;-74
2023/02/27 04:48:38;;;;;;;12.20;5.30;;;;;;;10.06;85.36;94512.31;5052548;28;20447;-73
2023/02/27 04:51:10;;;;;;;5.50;4.80;;;;;;;10.11;84.76;94538.09;5053231;28;20448;-75
2023/02/27 04:53:45;;;;;;;5.50;4.67;;;;;;;10.00;84.47;94525.13;5053008;28;20886;-75
2023/02/27 04:56:17;;;;;;;9.70;5.60;;;;;;;9.76;83.89;94523.69;5053033;28;20451;-75
2023/02/27 04:58:50;;;;;;;5.93;4.30;;;;;;;9.73;83.72;94531.81;5052916;28;21172;-75
2023/02/27 05:01:23;;;;;;;6.47;4.47;;;;;;;9.69;83.89;94527.81;5053052;28;20848;-76
2023/02/27 05:03:53;;;;;;;8.17;5.07;;;;;;;9.73;84.53;94529.22;5018950;28;20451;-75
2023/02/27 05:06:25;;;;;;;11.47;5.30;;;;;;;9.64;84.47;94540.50;5053094;28;20863;-75
2023/02/27 05:08:59;;;;;;;5.77;4.40;;;;;;;9.74;84.06;94541.34;5052701;28;20599;-75
2023/02/27 05:11:29;;;;;;;8.43;5.50;;;;;;;9.76;83.80;94547.28;5052979;28;20440;-75
2023/02/27 05:14:02;;;;;;;9.83;5.40;;;;;;;9.79;82.77;94562.72;5052549;28;20979;-75
2023/02/27 05:16:35;;;;;;;10.90;6.20;;;;;;;9.89;83.28;94573.25;5053023;28;20481;-74
2023/02/27 05:19:03;;;;;;;9.60;5.93;;;;;;;9.97;83.49;94583.91;5052896;28;20444;-75
2023/02/27 05:21:34;;;;;;;11.20;6.00;;;;;;;10.01;83.96;94584.47;5052527;28;20913;-74
2023/02/27 05:24:12;;;;;;;11.53;5.50;;;;;;;9.92;84.33;94581.69;5052691;28;20475;-74
2023/02/27 05:26:59;;;;;;;7.37;5.50;;;;;;;9.86;83.46;94586.63;5052548;28;20444;-74
2023/02/27 05:29:36;;;;;;;11.33;5.57;;;;;;;9.85;83.42;94595.47;5052692;28;20451;-74
2023/02/27 05:32:10;;;;;;;10.60;5.20;;;;;;;9.77;83.31;94598.72;5052259;28;20455;-74
2023/02/27 05:34:44;;;;;;;7.30;5.50;;;;;;;9.60;82.80;94587.09;5016659;28;21099;-74
2023/02/27 05:37:16;;;;;;;8.20;5.13;;;;;;;9.65;83.94;94589.31;5052413;28;20456;-74
2023/02/27 05:39:45;;;;;;;7.90;6.10;;;;;;;9.48;83.78;94582.88;5016773;28;20453;-74
2023/02/27 05:42:17;;;;;;;7.60;5.87;;;;;;;9.39;85.24;94595.94;5051965;28;20447;-74
2023/02/27 05:44:51;;;;;;;10.60;4.93;;;;;;;9.49;84.87;94602.88;5052042;28;20465;-73
2023/02/27 05:47:21;;;;;;;7.57;6.43;;;;;;;9.12;85.75;94580.78;5055104;28;20475;-74
2023/02/27 05:49:52;;;;;;;8.00;6.00;;;;;;;9.08;86.30;94597.69;5056077;28;20464;-74
2023/02/27 05:52:24;;;;;;;17.83;8.87;;;;;;;9.14;86.71;94603.25;5057000;28;20447;-74
2023/02/27 05:54:58;;;;;;;10.83;7.20;;;;;;;8.99;87.18;94610.59;5053327;28;20557;-74
2023/02/27 05:57:29;;;;;;;10.33;8.30;;;;;;;9.17;87.02;94605.59;5024085;28;20451;-74
2023/02/27 06:00:03;;;;;;;12.67;7.07;;;;;;;9.14;86.82;94594.56;5056261;28;20457;-74
2023/02/27 06:02:30;;;;;;;8.33;6.80;;;;;;;9.16;87.06;94610.97;5056216;28;20802;-75
2023/02/27 06:04:57;;;;;;;8.20;6.50;;;;;;;9.21;86.95;94625.31;5056385;28;20447;-75
2023/02/27 06:07:24;;;;;;;9.73;6.87;;;;;;;9.50;86.55;94632.50;5036899;28;20443;-75
2023/02/27 06:09:50;;;;;;;10.87;7.70;;;;;;;9.60;85.17;94623.75;5054884;28;20464;-74
2023/02/27 06:12:18;;;;;;;9.67;6.30;;;;;;;9.70;84.95;94644.75;5056068;28;20456;-74
2023/02/27 06:14:44;;;;;;;7.90;6.40;;;;;;;9.88;83.92;94616.97;5055682;28;20490;-74
2023/02/27 06:17:13;;;;;;;8.60;6.43;;;;;;;9.99;83.25;94638.81;5056144;28;20444;-74
2023/02/27 06:19:40;;;;;;;7.33;6.10;;;;;;;10.40;83.08;94632.59;5055801;28;20536;-74
2023/02/27 06:22:06;;;;;;;8.70;6.70;;;;;;;10.63;80.00;94627.94;5056077;28;21017;-74
2023/02/27 06:24:33;;;;;;;8.60;6.80;;;;;;;11.05;79.79;94621.47;5055774;28;20456;-75
2023/02/27 06:27:00;;;;;;;13.73;10.03;;;;;;;11.25;78.41;94647.69;5055354;28;20510;-73
2023/02/27 06:29:27;;;;;;;12.37;8.50;;;;;;;11.42;76.79;94641.72;5054950;28;20890;-73
2023/02/27 06:31:53;;;;;;;7.67;6.20;;;;;;;11.49;75.79;94653.31;5055110;28;20857;-74
2023/02/27 06:34:22;;;;;;;8.50;5.80;;;;;;;11.58;76.18;94651.66;5054657;28;20968;-74
2023/02/27 06:36:48;;;;;;;7.20;5.50;;;;;;;11.53;74.66;94657.31;5055302;28;20442;-75
2023/02/27 06:39:15;;;;;;;8.43;5.77;;;;;;;11.63;73.95;94673.91;5055368;28;20467;-74
2023/02/27 06:41:42;;;;;;;8.77;6.27;;;;;;;11.59;74.99;94669.09;5055477;28;20782;-74
2023/02/27 06:44:09;;;;;;;8.43;6.63;;;;;;;11.16;75.31;94663.31;5055534;28;20803;-74
2023/02/27 06:46:36;;;;;;;7.03;5.90;;;;;;;11.10;75.69;94677.00;5055574;28;20503;-74
2023/02/27 06:49:02;;;;;;;8.27;6.30;;;;;;;11.06;76.42;94657.25;5055329;28;20449;-74
2023/02/27 06:51:31;;;;;;;7.10;6.20;;;;;;;11.13;76.82;94658.34;5055673;28;20460;-73
2023/02/27 06:53:58;;;;;;;8.00;6.00;;;;;;;11.18;76.27;94661.38;5055283;28;20488;-74
2023/02/27 06:56:25;;;;;;;11.40;8.70;;;;;;;11.24;76.83;94652.09;5054840;28;20453;-74
2023/02/27 06:58:51;;;;;;;10.77;8.70;;;;;;;11.38;77.19;94648.22;5054326;28;20453;-73
2023/02/27 07:01:18;;;;;;;9.03;7.13;;;;;;;11.43;76.46;94653.88;5056997;28;20829;-77
2023/02/27 07:03:45;;;;;;;10.25;8.00;;;;;;;11.58;75.45;94639.34;5051389;28;20467;-75
2023/02/27 07:06:12;;;;;;;7.53;6.80;;;;;;;11.91;75.83;94634.56;5055405;28;20210;-75
2023/02/27 07:08:40;;;;;;;6.40;5.77;;;;;;;12.17;74.41;94646.09;5054756;28;20942;-74
2023/02/27 07:11:07;;;;;;;9.90;8.27;;;;;;;12.47;73.10;94644.97;5054993;28;20477;-73
2023/02/27 07:13:34;;;;;;;12.90;8.43;;;;;;;12.56;71.97;94651.13;5054993;28;20512;-72
2023/02/27 07:16:00;;;;;;;11.53;8.20;;;;;;;12.70;71.30;94658.50;5054668;28;20449;-73
2023/02/27 07:18:27;;;;;;;9.93;6.60;;;;;;;12.89;70.57;94665.47;5054753;28;20456;-72
2023/02/27 07:20:55;;;;;;;7.93;5.50;;;;;;;13.01;68.74;94674.81;5054963;28;20449;-73
2023/02/27 07:23:22;;;;;;;8.40;5.20;;;;;;;13.02;68.67;94671.19;5054712;28;20540;-73
2023/02/27 07:25:50;;;;;;;6.83;6.13;;;;;;;13.26;69.63;94667.97;5019632;28;20523;-75
2023/02/27 07:28:17;;;;;;;8.40;6.33;;;;;;;13.53;67.09;94675.75;5054375;28;20458;-71
2023/02/27 07:30:44;;;;;;;10.53;7.13;;;;;;;13.77;66.52;94675.13;5054250;28;20452;-72
2023/02/27 07:33:11;;;;;;;6.60;5.73;;;;;;;14.03;65.23;94676.94;5054122;28;20451;-73
2023/02/27 07:35:38;;;;;;;5.50;4.93;;;;;;;14.19;62.73;94679.66;5052824;28;20496;-73
2023/02/27 07:38:05;;;;;;;7.40;5.40;;;;;;;14.35;63.08;94676.28;5053305;28;20497;-72
2023/02/27 07:40:31;;;;;;;5.90;4.60;;;;;;;14.52;62.21;94672.75;5053903;28;20806;-74
2023/02/27 07:43:00;;;;;;;9.70;3.90;;;;;;;14.40;60.75;94679.25;5054604;28;20455;-72
2023/02/27 07:45:26;;;;;;;8.33;5.57;;;;;;;13.89;61.98;94684.44;5054031;28;20515;-73
2023/02/27 07:47:53;;;;;;;6.90;5.37;;;;;;;13.72;63.17;94684.47;5040712;28;20502;-73
2023/02/27 07:50:20;;;;;;;7.07;5.13;;;;;;;13.88;64.23;94687.25;5034582;28;20507;-73
2023/02/27 07:52:47;;;;;;;10.87;5.80;;;;;;;13.74;63.44;94688.63;5050685;28;20806;-73
2023/02/27 07:55:14;;;;;;;10.50;6.10;;;;;;;13.58;65.10;94688.47;5053793;28;20982;-72
2023/02/27 07:57:41;;;;;;;13.07;6.40;;;;;;;13.47;64.41;94684.28;5053372;28;20448;-73
2023/02/27 08:00:11;;;;;;;6.27;5.47;;;;;;;13.01;64.64;94695.88;5053732;28;20839;-73
2023/02/27 08:02:38;;;;;;;9.73;6.50;;;;;;;12.71;66.49;94699.66;5048145;28;20447;-72
2023/02/27 08:05:06;;;;;;;6.90;5.43;;;;;;;12.33;67.03;94701.53;5018786;28;20442;-72
2023/02/27 08:07:32;;;;;;;9.63;4.33;;;;;;;12.17;69.46;94709.22;5053782;28;20519;-76
2023/02/27 08:09:59;;;;;;;9.93;5.00;;;;;;;12.38;74.99;94716.88;5018526;28;20461;-73
2023/02/27 08:12:26;;;;;;;9.50;5.57;;;;;;;12.22;69.26;94704.34;5053622;28;20445;-74
2023/02/27 08:14:53;;;;;;;7.80;5.07;;;;;;;12.16;71.26;94699.66;5053957;28;21175;-74
2023/02/27 08:17:21;;;;;;;10.00;4.93;;;;;;;12.17;69.44;94717.09;5053662;28;20993;-74
2023/02/27 08:19:48;;;;;;;6.43;4.97;;;;;;;12.38;69.65;94711.59;5050165;28;20503;-72
2023/02/27 08:22:14;;;;;;;7.17;5.03;;;;;;;12.43;68.62;94698.84;5035282;28;20443;-73
2023/02/27 08:24:41;;;;;;;7.83;4.87;;;;;;;12.39;68.39;94708.81;5032618;28;21015;-74
2023/02/27 08:27:08;;;;;;;7.97;5.83;;;;;;;12.34;69.52;94707.59;5033271;28;20451;-73
2023/02/27 08:29:35;;;;;;;10.10;6.03;;;;;;;12.40;70.08;94702.59;5033649;28;20505;-74
2023/02/27 08:32:03;;;;;;;9.00;6.20;;;;;;;12.27;70.00;94707.38;5034125;28;20462;-73
2023/02/27 08:34:31;;;;;;;5.63;5.00;;;;;;;12.79;90.40;94718.19;5034782;28;20499;-79
2023/02/27 08:36:58;;;;;;;12.80;6.00;;;;;;;12.83;77.96;94709.03;5034468;28;20858;-73
2023/02/27 08:39:25;;;;;;;6.53;4.90;;;;;;;13.06;71.62;94711.25;5032659;28;20466;-73
2023/02/27 08:41:52;;;;;;;8.93;5.57;;;;;;;13.30;72.32;94707.06;5014792;28;20440;-73
2023/02/27 08:44:20;;;;;;;5.50;4.50;;;;;;;13.47;67.01;94702.75;5033353;28;20450;-73
2023/02/27 08:46:47;;;;;;;6.70;5.73;;;;;;;13.60;66.00;94713.75;5033372;28;20458;-74
2023/02/27 08:49:14;;;;;;;17.67;6.03;;;;;;;13.80;65.46;94706.47;5033558;28;20496;-73
2023/02/27 08:51:42;;;;;;;15.20;7.93;;;;;;;13.93;65.81;94704.25;5033450;28;20453;-73
2023/02/27 08:54:09;;;;;;;12.30;8.87;;;;;;;14.03;62.15;94716.50;5033584;28;20592;-75
2023/02/27 08:56:36;;;;;;;23.93;11.93;;;;;;;14.03;62.92;94717.34;5033435;28;20456;-75
2023/02/27 08:59:02;;;;;;;8.97;6.90;;;;;;;14.04;62.53;94724.25;5032838;28;20453;-75
2023/02/27 09:01:33;;;;;;;10.77;7.80;;;;;;;14.26;64.38;94721.09;5034134;28;20445;-79
2023/02/27 09:04:01;;;;;;;15.70;6.20;;;;;;;14.14;61.63;94730.25;5039608;28;20544;-78
2023/02/27 09:06:28;;;;;;;10.40;6.17;;;;;;;14.36;68.38;94720.97;5053833;28;20475;-79
2023/02/27 09:08:56;;;;;;;7.00;5.93;;;;;;;14.79;66.79;94741.19;5053675;28;20935;-80
2023/02/27 09:11:23;;;;;;;8.20;6.10;;;;;;;14.62;60.84;94736.00;5053715;28;20431;-80
2023/02/27 09:13:51;;;;;;;7.83;5.87;;;;;;;14.15;61.20;94731.91;5019120;28;20445;-80
2023/02/27 09:16:18;;;;;;;14.20;7.00;;;;;;;13.96;64.60;94742.69;5053277;28;20487;-78
2023/02/27 09:18:45;;;;;;;12.77;7.67;;;;;;;14.09;63.31;94740.44;5053654;28;20448;-78
2023/02/27 09:21:12;;;;;;;15.93;8.10;;;;;;;14.10;62.01;94747.38;5052744;28;20438;-78
2023/02/27 09:23:40;;;;;;;11.07;7.63;;;;;;;14.09;63.31;94740.44;5053445;28;20448;-78
2023/02/27 09:26:09;;;;;;;10.17;6.60;;;;;;;14.07;61.95;94747.69;5018926;28;20823;-78
2023/02/27 09:28:36;;;;;;;11.67;7.07;;;;;;;13.91;62.55;94748.44;5053326;28;20451;-76
2023/02/27 09:31:04;;;;;;;8.43;6.50;;;;;;;13.84;62.21;94738.63;5052106;28;20439;-79
2023/02/27 09:33:31;;;;;;;7.23;6.50;;;;;;;13.82;65.18;94740.59;5053204;28;20477;-79
2023/02/27 09:35:58;;;;;;;11.37;6.23;;;;;;;13.68;62.49;94743.78;5034545;28;20483;-79
2023/02/27 09:38:24;;;;;;;19.50;7.90;;;;;;;14.00;68.88;94737.94;5053392;28;20843;-78
2023/02/27 09:40:53;;;;;;;107.83;14.83;;;;;;;14.56;69.17;94745.38;5053520;28;20440;-77
2023/02/27 09:43:29;;;;;;;74.57;13.03;;;;;;;15.86;60.67;94748.34;5053173;28;20824;-76
2023/02/27 09:45:58;;;;;;;54.13;11.37;;;;;;;16.61;57.53;94746.25;5053151;28;20960;-77
2023/02/27 09:48:30;;;;;;;12.70;7.00;;;;;;;16.65;53.90;94749.38;5052708;28;20450;-76
2023/02/27 09:50:57;;;;;;;14.43;7.23;;;;;;;15.39;58.87;94759.53;5053124;28;20508;-76
2023/02/27 09:53:29;;;;;;;11.33;6.03;;;;;;;14.80;58.04;94765.81;5053000;28;20864;-79
2023/02/27 09:56:00;;;;;;;12.30;7.40;;;;;;;14.27;59.94;94754.44;5053447;28;20485;-77
2023/02/27 09:58:43;;;;;;;10.53;6.53;;;;;;;13.93;63.01;94761.47;5053373;28;20499;-77
2023/02/27 10:01:15;;;;;;;10.93;7.00;;;;;;;14.06;62.70;94763.69;5053087;28;20436;-77
2023/02/27 10:04:06;;;;;;;10.97;7.23;;;;;;;13.51;63.80;94777.91;5053040;28;20459;-78
2023/02/27 10:06:40;;;;;;;10.20;6.90;;;;;;;13.69;64.55;94785.00;5052991;28;20491;-78
2023/02/27 10:09:20;;;;;;;8.13;6.70;;;;;;;13.38;66.00;94766.91;5052949;28;20449;-78
2023/02/27 10:12:01;;;;;;;11.00;6.40;;;;;;;13.42;68.79;94772.72;5053009;28;20873;-79
2023/02/27 10:14:39;;;;;;;6.83;5.67;;;;;;;13.46;65.87;94774.91;5052473;28;20784;-77
2023/02/27 10:17:15;;;;;;;6.73;6.03;;;;;;;13.54;68.30;94768.88;5053095;28;20782;-78
2023/02/27 10:19:45;;;;;;;7.63;5.87;;;;;;;13.31;66.26;94771.97;5053210;28;20446;-77
2023/02/27 10:22:18;;;;;;;7.20;6.50;;;;;;;13.18;66.10;94784.66;5053044;28;20454;-77
2023/02/27 10:24:50;;;;;;;13.40;6.57;;;;;;;13.02;67.68;94781.84;5052694;28;20956;-76
2023/02/27 10:27:20;;;;;;;8.00;5.57;;;;;;;13.17;68.54;94780.38;5052631;28;20455;-79
2023/02/27 10:29:48;;;;;;;5.97;5.43;;;;;;;13.30;67.19;94780.03;5052452;28;21176;-77
2023/02/27 10:32:20;;;;;;;8.90;4.90;;;;;;;12.94;68.25;94776.44;5052850;28;20456;-80
2023/02/27 10:34:53;;;;;;;8.37;5.43;;;;;;;13.22;67.62;94772.00;5055654;28;20582;-77
2023/02/27 10:37:24;;;;;;;6.93;5.63;;;;;;;13.42;67.64;94770.91;5056784;28;20937;-81
2023/02/27 10:39:56;;;;;;;12.10;6.83;;;;;;;13.48;70.06;94772.94;5056691;28;20479;-76
2023/02/27 10:42:26;;;;;;;8.83;5.80;;;;;;;14.07;73.74;94762.69;5056276;28;20537;-75
2023/02/27 10:44:54;;;;;;;9.20;5.93;;;;;;;13.99;65.83;94758.19;5055797;28;20458;-75
2023/02/27 10:47:23;;;;;;;7.83;5.20;;;;;;;14.10;66.72;94765.84;5055696;28;20455;-75
2023/02/27 10:49:51;;;;;;;6.73;5.70;;;;;;;14.11;64.85;94764.88;5056229;28;20449;-78
2023/02/27 10:52:18;;;;;;;7.50;5.77;;;;;;;14.13;66.51;94768.19;5056014;28;20444;-76
2023/02/27 10:54:47;;;;;;;5.20;4.70;;;;;;;14.07;65.30;94774.09;5055780;28;20510;-77
2023/02/27 10:57:23;;;;;;;7.00;5.10;;;;;;;14.13;66.12;94767.34;5056544;28;20432;-76
2023/02/27 10:59:52;;;;;;;5.47;4.97;;;;;;;13.89;67.03;94758.31;5056298;28;20434;-78
2023/02/27 11:02:24;;;;;;;13.03;5.10;;;;;;;13.95;72.04;94759.50;5056412;28;20463;-77
2023/02/27 11:04:53;;;;;;;9.37;5.50;;;;;;;14.12;78.50;94761.25;5056058;28;20931;-80
2023/02/27 11:07:28;;;;;;;8.37;5.40;;;;;;;16.69;93.15;94756.84;5056282;28;20457;-82
2023/02/27 11:10:04;;;;;;;9.27;5.73;;;;;;;16.27;62.95;94756.28;5056448;28;20447;-78
2023/02/27 11:12:32;;;;;;;7.00;4.87;;;;;;;15.74;61.67;94744.41;5055387;28;20457;-77
2023/02/27 11:15:01;;;;;;;10.10;5.33;;;;;;;15.17;62.52;94746.94;5055080;28;20554;-77
2023/02/27 11:17:31;;;;;;;9.10;5.77;;;;;;;14.79;64.29;94749.13;5055301;28;20455;-73
2023/02/27 11:19:59;;;;;;;7.90;6.07;;;;;;;14.67;64.42;94733.69;5054580;28;20456;-72
2023/02/27 11:22:28;;;;;;;8.33;5.90;;;;;;;14.57;66.83;94739.13;5054858;28;20443;-77
2023/02/27 11:25:21;;;;;;;8.70;6.03;;;;;;;14.64;76.19;94739.31;5055077;28;20449;-77
2023/02/27 11:27:50;;;;;;;10.73;6.20;;;;;;;14.53;66.36;94733.31;5013705;28;20458;-78
2023/02/27 11:30:25;;;;;;;7.43;5.67;;;;;;;14.51;66.69;94726.56;5012991;28;20448;-74
2023/02/27 11:32:56;;;;;;;10.30;6.33;;;;;;;14.62;66.26;94723.63;5012251;28;20468;-74
2023/02/27 11:35:28;;;;;;;9.50;5.87;;;;;;;14.44;65.70;94718.41;5011963;28;20583;-73
2023/02/27 11:37:57;;;;;;;16.03;7.30;;;;;;;14.57;65.81;94728.56;5011975;28;20520;-73
2023/02/27 11:40:29;;;;;;;9.87;6.37;;;;;;;14.68;65.00;94724.78;5011707;28;20501;-72
2023/02/27 11:42:58;;;;;;;7.20;5.83;;;;;;;14.81;65.07;94719.91;5011984;28;20451;-72
2023/02/27 11:45:31;;;;;;;14.37;7.87;;;;;;;14.90;64.12;94731.31;5011534;28;20458;-73
2023/02/27 11:48:08;;;;;;;11.23;5.63;;;;;;;14.91;64.04;94735.63;5012097;28;20446;-73